createdAt,value
2023-01-29T00:00:41.949Z,99113.38
2023-01-29T00:03:31.397Z,99111.48
2023-01-29T00:06:07.038Z,99115.17
2023-01-29T00:08:37.656Z,99114.06
2023-01-29T00:11:09.262Z,99110.65
2023-01-29T00:13:38.212Z,99111.02
2023-01-29T00:16:07.192Z,99110.81
2023-01-29T00:18:41.199Z,99110.92
2023-01-29T00:21:12.220Z,99112.10
2023-01-29T00:23:41.597Z,99113.77
2023-01-29T00:26:11.647Z,99106.29
2023-01-29T00:28:40.955Z,99108.88
2023-01-29T00:31:18.740Z,99116.13
2023-01-29T00:33:49.520Z,99114.95
2023-01-29T00:36:20.881Z,99111.63
2023-01-29T00:38:59.039Z,99109.89
2023-01-29T00:41:48.898Z,99114.05
2023-01-29T00:44:37.454Z,99111.59
2023-01-29T00:47:25.054Z,99110.66
2023-01-29T00:49:53.991Z,99107.09
2023-01-29T00:52:25.402Z,99109.70
2023-01-29T00:54:56.899Z,99109.77
2023-01-29T00:57:28.251Z,99113.07
2023-01-29T00:59:57.593Z,99110.13
2023-01-29T01:02:45.292Z,99108.44
2023-01-29T01:05:18.467Z,99109.87
2023-01-29T01:07:53.279Z,99105.73
2023-01-29T01:10:28.792Z,99111.08
2023-01-29T01:13:03.334Z,99108.56
2023-01-29T01:15:37.725Z,99111.89
2023-01-29T01:18:06.989Z,99115.79
2023-01-29T01:20:37.115Z,99117.52
2023-01-29T01:23:06.306Z,99118.67
2023-01-29T01:25:34.876Z,99116.34
2023-01-29T01:28:03.454Z,99115.19
2023-01-29T01:30:33.442Z,99115.73
2023-01-29T01:33:02.674Z,99114.70
2023-01-29T01:35:31.465Z,99122.38
2023-01-29T01:38:00.906Z,99123.95
2023-01-29T01:40:30.353Z,99126.66
2023-01-29T01:43:01.710Z,99121.94
2023-01-29T01:45:37.497Z,99123.99
2023-01-29T01:48:17.661Z,99127.27
2023-01-29T01:50:56.965Z,99126.56
2023-01-29T01:53:49.682Z,99127.23
2023-01-29T01:56:25.883Z,99131.35
2023-01-29T01:58:59.305Z,99128.48
2023-01-29T02:01:29.383Z,99128.89
2023-01-29T02:04:30.078Z,99130.42
2023-01-29T02:07:20.348Z,99125.05
2023-01-29T02:10:09.105Z,99127.06
2023-01-29T02:12:38.862Z,99129.67
2023-01-29T02:15:08.567Z,99130.70
2023-01-29T02:17:37.719Z,99129.45
2023-01-29T02:20:06.547Z,99130.48
2023-01-29T02:22:55.513Z,99132.77
2023-01-29T02:25:49.727Z,99129.17
2023-01-29T02:28:30.131Z,99132.17
2023-01-29T02:31:40.847Z,99134.57
2023-01-29T02:34:26.652Z,99134.30
2023-01-29T02:37:10.117Z,99140.77
2023-01-29T02:39:57.390Z,99143.17
2023-01-29T02:42:37.073Z,99145.55
2023-01-29T02:45:35.402Z,99138.33
2023-01-29T02:48:04.663Z,99139.27
2023-01-29T02:50:58.370Z,99145.61
2023-01-29T02:53:41.613Z,99141.30
2023-01-29T02:56:17.086Z,99140.39
2023-01-29T02:58:58.032Z,99138.92
2023-01-29T03:01:44.853Z,99147.95
2023-01-29T03:04:21.419Z,99142.73
2023-01-29T03:06:57.909Z,99141.81
2023-01-29T03:09:42.180Z,99142.63
2023-01-29T03:12:28.842Z,99149.97
2023-01-29T03:15:12.297Z,99147.96
2023-01-29T03:18:11.292Z,99149.42
2023-01-29T03:20:54.605Z,99159.16
2023-01-29T03:23:48.094Z,99158.83
2023-01-29T03:26:38.962Z,99158.61
2023-01-29T03:29:28.380Z,99160.52
2023-01-29T03:32:08.034Z,99161.23
2023-01-29T03:34:52.476Z,99159.11
2023-01-29T03:37:40.326Z,99169.65
2023-01-29T03:40:11.185Z,99163.07
2023-01-29T03:42:43.173Z,99163.02
2023-01-29T03:46:01.006Z,99164.38
2023-01-29T03:48:48.176Z,99155.41
2023-01-29T03:51:29.253Z,99161.19
2023-01-29T03:54:30.338Z,99166.61
2023-01-29T03:57:16.421Z,99169.86
2023-01-29T04:00:00.764Z,99173.29
2023-01-29T04:02:43.209Z,99172.69
2023-01-29T04:05:19.014Z,99173.02
2023-01-29T04:07:50.277Z,99174.86
2023-01-29T04:10:25.222Z,99178.73
2023-01-29T04:13:04.769Z,99179.00
2023-01-29T04:15:40.145Z,99179.38
2023-01-29T04:18:09.170Z,99179.17
2023-01-29T04:20:38.671Z,99176.27
2023-01-29T04:23:20.487Z,99179.92
2023-01-29T04:26:14.926Z,99169.70
2023-01-29T04:29:10.383Z,99171.40
2023-01-29T04:32:00.962Z,99173.45
2023-01-29T04:34:37.755Z,99169.16
2023-01-29T04:37:22.918Z,99170.30
2023-01-29T04:40:09.959Z,99164.96
2023-01-29T04:42:55.847Z,99170.23
2023-01-29T04:45:39.909Z,99171.55
2023-01-29T04:48:17.559Z,99175.06
2023-01-29T04:51:21.692Z,99173.81
2023-01-29T04:54:23.825Z,99175.97
2023-01-29T04:57:05.109Z,99176.63
2023-01-29T04:59:46.516Z,99174.89
2023-01-29T05:02:16.026Z,99177.38
2023-01-29T05:04:47.521Z,99179.54
2023-01-29T05:07:18.542Z,99182.86
2023-01-29T05:09:48.344Z,99188.18
2023-01-29T05:12:19.571Z,99185.97
2023-01-29T05:14:51.448Z,99186.40
2023-01-29T05:17:21.182Z,99185.65
2023-01-29T05:19:50.479Z,99184.95
2023-01-29T05:22:23.330Z,99186.91
2023-01-29T05:24:52.480Z,99188.16
2023-01-29T05:27:51.129Z,99187.08
2023-01-29T05:30:20.268Z,99189.17
2023-01-29T05:32:49.524Z,99193.52
2023-01-29T05:35:18.482Z,99195.23
2023-01-29T05:37:47.168Z,99195.20
2023-01-29T05:40:16.484Z,99198.45
2023-01-29T05:42:45.233Z,99203.66
2023-01-29T05:45:13.903Z,99202.91
2023-01-29T05:47:42.302Z,99208.17
2023-01-29T05:50:11.772Z,99206.34
2023-01-29T05:52:41.204Z,99207.32
2023-01-29T05:55:10.814Z,99213.94
2023-01-29T05:57:41.079Z,99218.04
2023-01-29T06:00:10.889Z,99219.00
2023-01-29T06:02:40.827Z,99222.09
2023-01-29T06:05:09.906Z,99218.92
2023-01-29T06:07:42.847Z,99217.11
2023-01-29T06:10:16.052Z,99221.96
2023-01-29T06:12:46.024Z,99226.61
2023-01-29T06:15:17.648Z,99235.36
2023-01-29T06:17:46.527Z,99236.39
2023-01-29T06:20:15.818Z,99237.01
2023-01-29T06:22:44.981Z,99242.01
2023-01-29T06:25:13.997Z,99246.23
2023-01-29T06:27:42.548Z,99246.67
2023-01-29T06:30:12.415Z,99246.84
2023-01-29T06:32:41.459Z,99251.52
2023-01-29T06:35:11.278Z,99253.70
2023-01-29T06:37:40.256Z,99253.56
2023-01-29T06:40:10.202Z,99260.35
2023-01-29T06:42:39.228Z,99265.85
2023-01-29T06:45:09.235Z,99267.61
2023-01-29T06:47:38.218Z,99266.66
2023-01-29T06:50:07.673Z,99274.80
2023-01-29T06:52:36.583Z,99278.98
2023-01-29T06:55:05.968Z,99281.81
2023-01-29T06:57:35.401Z,99281.77
2023-01-29T07:00:06.924Z,99285.42
2023-01-29T07:02:35.980Z,99284.86
2023-01-29T07:05:05.198Z,99286.83
2023-01-29T07:07:37.267Z,99287.15
2023-01-29T07:10:06.959Z,99288.48
2023-01-29T07:12:35.959Z,99289.30
2023-01-29T07:15:05.524Z,99291.48
2023-01-29T07:17:34.238Z,99290.01
2023-01-29T07:20:02.730Z,99291.00
2023-01-29T07:22:31.209Z,99293.34
2023-01-29T07:24:59.769Z,99295.09
2023-01-29T07:27:28.514Z,99299.05
2023-01-29T07:29:57.028Z,99295.77
2023-01-29T07:32:25.956Z,99292.91
2023-01-29T07:34:54.624Z,99296.40
2023-01-29T07:37:23.872Z,99298.78
2023-01-29T07:39:52.701Z,99298.98
2023-01-29T07:42:21.160Z,99298.79
2023-01-29T07:44:50.115Z,99297.99
2023-01-29T07:47:19.099Z,99298.13
2023-01-29T07:49:48.635Z,99295.59
2023-01-29T07:52:21.941Z,99294.55
2023-01-29T07:54:51.304Z,99296.81
2023-01-29T07:57:20.139Z,99297.60
2023-01-29T07:59:49.350Z,99300.98
2023-01-29T08:02:18.288Z,99302.02
2023-01-29T08:04:47.160Z,99305.14
2023-01-29T08:07:16.115Z,99312.41
2023-01-29T08:09:46.085Z,99310.94
2023-01-29T08:12:16.272Z,99314.45
2023-01-29T08:14:46.359Z,99315.33
2023-01-29T08:17:15.462Z,99309.88
2023-01-29T08:19:44.933Z,99313.73
2023-01-29T08:22:15.735Z,99315.77
2023-01-29T08:24:53.866Z,99317.13
2023-01-29T08:27:29.319Z,99328.25
2023-01-29T08:29:58.750Z,99324.14
2023-01-29T08:32:27.640Z,99329.50
2023-01-29T08:34:57.915Z,99326.85
2023-01-29T08:37:27.111Z,99333.26
2023-01-29T08:39:55.891Z,99332.61
2023-01-29T08:42:24.477Z,99331.52
2023-01-29T08:44:53.439Z,99332.59
2023-01-29T08:47:22.282Z,99334.15
2023-01-29T08:49:51.671Z,99339.85
2023-01-29T08:52:20.524Z,99343.69
2023-01-29T08:54:49.639Z,99339.38
2023-01-29T08:57:18.710Z,99342.40
2023-01-29T08:59:47.528Z,99341.32
2023-01-29T09:02:16.749Z,99340.90
2023-01-29T09:04:45.644Z,99344.55
2023-01-29T09:07:14.672Z,99338.64
2023-01-29T09:09:43.968Z,99341.55
2023-01-29T09:12:14.071Z,99344.67
2023-01-29T09:14:43.137Z,99341.55
2023-01-29T09:17:13.124Z,99338.64
2023-01-29T09:19:42.748Z,99344.63
2023-01-29T09:22:12.421Z,99348.66
2023-01-29T09:24:42.177Z,99342.23
2023-01-29T09:27:12.855Z,99345.25
2023-01-29T09:29:42.097Z,99340.76
2023-01-29T09:32:11.617Z,99342.05
2023-01-29T09:34:40.808Z,99340.53
2023-01-29T09:37:11.341Z,99345.16
2023-01-29T09:39:40.327Z,99340.81
2023-01-29T09:42:13.964Z,99341.60
2023-01-29T09:44:52.884Z,99340.42
2023-01-29T09:47:26.300Z,99347.06
2023-01-29T09:50:13.434Z,99345.08
2023-01-29T09:52:58.829Z,99350.93
2023-01-29T09:55:50.613Z,99345.17
2023-01-29T09:58:37.510Z,99353.51
2023-01-29T10:01:24.052Z,99351.56
2023-01-29T10:04:08.614Z,99342.27
2023-01-29T10:06:48.581Z,99346.30
2023-01-29T10:09:47.110Z,99343.70
2023-01-29T10:12:41.117Z,99342.96
2023-01-29T10:15:25.627Z,99347.77
2023-01-29T10:18:17.864Z,99345.89
2023-01-29T10:20:56.659Z,99347.23
2023-01-29T10:23:35.054Z,99343.05
2023-01-29T10:26:04.655Z,99326.38
2023-01-29T10:28:46.833Z,99327.14
2023-01-29T10:31:29.068Z,99324.36
2023-01-29T10:34:03.731Z,99312.52
2023-01-29T10:36:39.877Z,99315.71
2023-01-29T10:39:31.901Z,99310.11
2023-01-29T10:42:22.235Z,99306.50
2023-01-29T10:45:06.917Z,99304.80
2023-01-29T10:47:43.609Z,99300.11
2023-01-29T10:50:37.059Z,99293.42
2023-01-29T10:53:28.565Z,99294.69
2023-01-29T10:56:03.866Z,99287.59
2023-01-29T10:58:56.992Z,99282.68
2023-01-29T11:01:27.436Z,99283.41
2023-01-29T11:04:06.088Z,99279.98
2023-01-29T11:06:37.168Z,99268.89
2023-01-29T11:09:10.972Z,99266.06
2023-01-29T11:11:51.108Z,99268.63
2023-01-29T11:14:27.383Z,99265.51
2023-01-29T11:16:57.317Z,99261.27
2023-01-29T11:19:56.670Z,99255.43
2023-01-29T11:22:29.159Z,99259.41
2023-01-29T11:25:33.177Z,99264.87
2023-01-29T11:28:06.477Z,99262.73
2023-01-29T11:30:39.532Z,99258.27
2023-01-29T11:33:25.523Z,99255.40
2023-01-29T11:35:57.369Z,99253.08
2023-01-29T11:38:28.689Z,99247.19
2023-01-29T11:41:15.345Z,99243.73
2023-01-29T11:43:45.208Z,99237.93
2023-01-29T11:46:16.560Z,99235.12
2023-01-29T11:48:59.477Z,99235.86
2023-01-29T11:51:38.050Z,99229.50
2023-01-29T11:54:16.174Z,99220.42
2023-01-29T11:56:48.590Z,99219.27
2023-01-29T11:59:35.278Z,99216.66
2023-01-29T12:02:32.235Z,99206.50
2023-01-29T12:05:29.161Z,99210.29
2023-01-29T12:08:03.228Z,99207.81
2023-01-29T12:10:38.299Z,99211.80
2023-01-29T12:13:11.616Z,99210.51
2023-01-29T12:15:43.725Z,99208.96
2023-01-29T12:18:25.504Z,99211.55
2023-01-29T12:21:02.154Z,99207.68
2023-01-29T12:23:49.952Z,99206.99
2023-01-29T12:26:34.251Z,99202.01
2023-01-29T12:29:17.591Z,99214.13
2023-01-29T12:32:01.928Z,99216.61
2023-01-29T12:34:40.431Z,99218.14
2023-01-29T12:37:19.402Z,99211.46
2023-01-29T12:39:52.192Z,99201.77
2023-01-29T12:42:27.146Z,99195.54
2023-01-29T12:45:06.997Z,99188.85
2023-01-29T12:47:45.170Z,99190.96
2023-01-29T12:50:25.353Z,99192.61
2023-01-29T12:53:03.075Z,99200.02
2023-01-29T12:55:43.283Z,99201.37
2023-01-29T12:58:22.529Z,99201.54
2023-01-29T13:00:59.835Z,99195.46
2023-01-29T13:03:36.628Z,99197.39
2023-01-29T13:06:15.770Z,99194.23
2023-01-29T13:08:54.497Z,99196.23
2023-01-29T13:11:57.139Z,99195.45
2023-01-29T13:14:37.024Z,99206.92
2023-01-29T13:17:26.504Z,99205.50
2023-01-29T13:19:59.130Z,99210.25
2023-01-29T13:22:34.965Z,99211.27
2023-01-29T13:25:05.820Z,99202.54
2023-01-29T13:27:37.428Z,99192.42
2023-01-29T13:30:07.006Z,99188.38
2023-01-29T13:32:37.153Z,99185.92
2023-01-29T13:35:13.545Z,99186.63
2023-01-29T13:37:54.744Z,99196.02
2023-01-29T13:40:30.756Z,99204.67
2023-01-29T13:43:00.338Z,99198.30
2023-01-29T13:45:45.656Z,99199.45
2023-01-29T13:48:32.497Z,99210.14
2023-01-29T13:51:05.261Z,99205.16
2023-01-29T13:53:38.961Z,99205.84
2023-01-29T13:56:35.857Z,99207.74
2023-01-29T13:59:07.549Z,99200.48
2023-01-29T14:01:48.778Z,99209.67
2023-01-29T14:04:30.385Z,99206.82
2023-01-29T14:07:00.365Z,99202.08
2023-01-29T14:09:38.610Z,99201.30
2023-01-29T14:12:22.923Z,99199.48
2023-01-29T14:15:05.460Z,99196.46
2023-01-29T14:17:37.633Z,99197.39
2023-01-29T14:20:45.571Z,99196.35
2023-01-29T14:23:44.879Z,99197.39
2023-01-29T14:26:33.641Z,99198.01
2023-01-29T14:29:05.632Z,99196.37
2023-01-29T14:31:44.242Z,99200.95
2023-01-29T14:34:30.479Z,99202.15
2023-01-29T14:37:05.462Z,99203.18
2023-01-29T14:39:41.585Z,99203.77
2023-01-29T14:42:34.990Z,99200.52
2023-01-29T14:45:22.806Z,99202.11
2023-01-29T14:47:55.023Z,99200.55
2023-01-29T14:50:35.830Z,99196.28
2023-01-29T14:53:26.981Z,99194.28
2023-01-29T14:56:01.838Z,99203.14
2023-01-29T14:58:44.755Z,99203.64
2023-01-29T15:01:31.464Z,99208.81
2023-01-29T15:04:21.909Z,99210.27
2023-01-29T15:07:11.272Z,99215.59
2023-01-29T15:10:07.919Z,99217.18
2023-01-29T15:13:10.178Z,99225.45
2023-01-29T15:15:54.719Z,99229.58
2023-01-29T15:18:33.772Z,99229.44
2023-01-29T15:21:13.254Z,99232.56
2023-01-29T15:23:47.119Z,99234.38
2023-01-29T15:26:22.353Z,99236.87
2023-01-29T15:29:03.646Z,99238.00
2023-01-29T15:31:35.754Z,99245.33
2023-01-29T15:34:07.819Z,99252.20
2023-01-29T15:36:37.726Z,99251.81
2023-01-29T15:39:12.645Z,99251.48
2023-01-29T15:41:42.034Z,99251.39
2023-01-29T15:44:20.587Z,99256.85
2023-01-29T15:46:56.927Z,99251.55
2023-01-29T15:49:37.202Z,99251.27
2023-01-29T15:52:16.074Z,99246.47
2023-01-29T15:54:47.110Z,99245.15
2023-01-29T15:57:30.119Z,99245.44
2023-01-29T15:59:59.471Z,99246.39
2023-01-29T16:02:49.083Z,99249.85
2023-01-29T16:05:23.594Z,99253.94
2023-01-29T16:07:54.605Z,99255.44
2023-01-29T16:10:34.210Z,99258.20
2023-01-29T16:13:04.703Z,99259.55
2023-01-29T16:15:40.756Z,99263.31
2023-01-29T16:18:36.231Z,99272.88
2023-01-29T16:21:32.034Z,99274.69
2023-01-29T16:24:12.108Z,99282.38
2023-01-29T16:26:47.635Z,99287.91
2023-01-29T16:29:22.013Z,99285.33
2023-01-29T16:32:01.329Z,99290.73
2023-01-29T16:34:38.780Z,99294.83
2023-01-29T16:37:37.943Z,99296.23
2023-01-29T16:40:16.500Z,99300.35
2023-01-29T16:42:46.992Z,99302.36
2023-01-29T16:45:28.614Z,99300.87
2023-01-29T16:48:04.082Z,99302.80
2023-01-29T16:50:46.293Z,99300.92
2023-01-29T16:53:25.190Z,99308.54
2023-01-29T16:55:54.835Z,99308.27
2023-01-29T16:58:28.757Z,99311.31
2023-01-29T17:01:11.331Z,99308.24
2023-01-29T17:03:42.579Z,99305.85
2023-01-29T17:06:31.872Z,99308.27
2023-01-29T17:09:01.573Z,99306.17
2023-01-29T17:11:44.484Z,99304.66
2023-01-29T17:14:20.471Z,99299.50
2023-01-29T17:16:56.589Z,99297.16
2023-01-29T17:19:26.326Z,99296.38
2023-01-29T17:21:55.518Z,99293.52
2023-01-29T17:24:25.001Z,99293.44
2023-01-29T17:26:54.355Z,99294.27
2023-01-29T17:29:29.511Z,99293.05
2023-01-29T17:32:00.689Z,99292.48
2023-01-29T17:34:29.762Z,99291.23
2023-01-29T17:36:59.587Z,99296.10
2023-01-29T17:39:29.323Z,99299.20
2023-01-29T17:41:59.625Z,99300.23
2023-01-29T17:44:28.966Z,99302.92
2023-01-29T17:46:58.356Z,99302.38
2023-01-29T17:49:29.391Z,99300.58
2023-01-29T17:51:59.374Z,99303.09
2023-01-29T17:54:28.711Z,99302.48
2023-01-29T17:56:58.825Z,99303.09
2023-01-29T17:59:33.323Z,99303.44
2023-01-29T18:02:02.773Z,99299.55
2023-01-29T18:04:32.079Z,99303.63
2023-01-29T18:07:01.278Z,99306.89
2023-01-29T18:09:30.144Z,99308.02
2023-01-29T18:11:59.011Z,99308.00
2023-01-29T18:14:27.805Z,99308.22
2023-01-29T18:16:58.240Z,99310.22
2023-01-29T18:19:31.657Z,99310.85
2023-01-29T18:22:00.947Z,99313.73
2023-01-29T18:24:31.961Z,99312.33
2023-01-29T18:27:01.428Z,99312.66
2023-01-29T18:29:30.751Z,99313.12
2023-01-29T18:31:59.797Z,99311.01
2023-01-29T18:34:28.691Z,99309.17
2023-01-29T18:36:59.470Z,99308.77
2023-01-29T18:39:28.641Z,99307.84
2023-01-29T18:41:58.888Z,99307.02
2023-01-29T18:44:30.387Z,99303.89
2023-01-29T18:46:59.276Z,99304.86
2023-01-29T18:49:28.176Z,99307.67
2023-01-29T18:51:57.347Z,99313.24
2023-01-29T18:54:27.675Z,99313.80
2023-01-29T18:57:11.135Z,99316.83
2023-01-29T18:59:49.217Z,99317.22
2023-01-29T19:02:19.904Z,99324.25
2023-01-29T19:04:49.851Z,99326.64
2023-01-29T19:07:19.058Z,99329.39
2023-01-29T19:09:48.900Z,99331.42
2023-01-29T19:12:18.145Z,99335.08
2023-01-29T19:14:46.936Z,99337.20
2023-01-29T19:17:16.321Z,99345.56
2023-01-29T19:19:47.493Z,99347.61
2023-01-29T19:22:17.446Z,99346.54
2023-01-29T19:24:46.453Z,99344.19
2023-01-29T19:27:16.193Z,99345.55
2023-01-29T19:29:45.846Z,99350.02
2023-01-29T19:32:16.266Z,99351.21
2023-01-29T19:34:45.834Z,99352.84
2023-01-29T19:37:16.957Z,99347.48
2023-01-29T19:39:45.749Z,99347.35
2023-01-29T19:42:15.290Z,99348.94
2023-01-29T19:44:46.041Z,99353.01
2023-01-29T19:47:16.362Z,99357.84
2023-01-29T19:49:45.641Z,99355.56
2023-01-29T19:52:51.200Z,99362.04
2023-01-29T19:55:22.483Z,99365.39
2023-01-29T19:57:55.765Z,99369.58
2023-01-29T20:00:25.320Z,99372.31
2023-01-29T20:02:54.492Z,99377.89
2023-01-29T20:05:24.642Z,99377.34
2023-01-29T20:07:53.751Z,99376.29
2023-01-29T20:10:22.981Z,99380.68
2023-01-29T20:12:52.562Z,99381.35
2023-01-29T20:15:22.956Z,99388.45
2023-01-29T20:17:52.835Z,99388.13
2023-01-29T20:20:22.831Z,99386.25
2023-01-29T20:22:54.375Z,99385.38
2023-01-29T20:25:24.445Z,99392.79
2023-01-29T20:27:53.451Z,99393.98
2023-01-29T20:30:22.597Z,99388.64
2023-01-29T20:32:52.290Z,99392.20
2023-01-29T20:35:21.082Z,99392.90
2023-01-29T20:37:50.232Z,99392.30
2023-01-29T20:40:19.435Z,99401.35
2023-01-29T20:42:49.087Z,99409.84
2023-01-29T20:45:18.195Z,99408.79
2023-01-29T20:47:47.209Z,99411.34
2023-01-29T20:50:19.549Z,99400.55
2023-01-29T20:52:48.965Z,99396.31
2023-01-29T20:55:18.215Z,99390.67
2023-01-29T20:58:05.787Z,99390.80
2023-01-29T21:00:35.994Z,99394.68
2023-01-29T21:03:05.529Z,99400.30
2023-01-29T21:05:34.642Z,99400.80
2023-01-29T21:08:04.429Z,99400.75
2023-01-29T21:10:33.972Z,99396.51
2023-01-29T21:13:03.857Z,99392.75
2023-01-29T21:15:33.392Z,99389.11
2023-01-29T21:18:04.969Z,99385.61
2023-01-29T21:20:34.933Z,99380.02
2023-01-29T21:23:06.906Z,99374.08
2023-01-29T21:25:36.321Z,99369.62
2023-01-29T21:28:06.553Z,99367.44
2023-01-29T21:30:36.110Z,99368.14
2023-01-29T21:33:05.945Z,99371.13
2023-01-29T21:35:38.149Z,99367.15
2023-01-29T21:38:07.094Z,99365.85
2023-01-29T21:40:36.114Z,99359.98
2023-01-29T21:43:15.903Z,99361.27
2023-01-29T21:45:44.827Z,99357.95
2023-01-29T21:48:13.927Z,99359.04
2023-01-29T21:50:43.689Z,99356.35
2023-01-29T21:53:12.771Z,99354.89
2023-01-29T21:55:41.869Z,99354.39
2023-01-29T21:58:14.065Z,99349.29
2023-01-29T22:00:43.890Z,99348.54
2023-01-29T22:03:12.980Z,99346.20
2023-01-29T22:05:42.172Z,99346.05
2023-01-29T22:08:11.213Z,99348.58
2023-01-29T22:10:40.815Z,99345.86
2023-01-29T22:13:10.313Z,99345.64
2023-01-29T22:15:39.308Z,99343.62
2023-01-29T22:18:08.818Z,99351.55
2023-01-29T22:20:38.291Z,99350.23
2023-01-29T22:23:08.686Z,99348.55
2023-01-29T22:25:38.163Z,99351.70
2023-01-29T22:28:07.664Z,99351.16
2023-01-29T22:30:37.367Z,99351.91
2023-01-29T22:33:06.410Z,99350.37
2023-01-29T22:35:35.509Z,99350.52
2023-01-29T22:38:05.084Z,99352.22
2023-01-29T22:40:34.183Z,99351.88
2023-01-29T22:43:03.174Z,99355.55
2023-01-29T22:45:32.429Z,99358.79
2023-01-29T22:48:01.225Z,99358.39
2023-01-29T22:50:30.667Z,99355.38
2023-01-29T22:53:00.109Z,99354.70
2023-01-29T22:55:29.117Z,99355.94
2023-01-29T22:57:57.885Z,99350.59
2023-01-29T23:00:26.993Z,99353.73
2023-01-29T23:02:55.870Z,99360.67
2023-01-29T23:05:25.320Z,99364.52
2023-01-29T23:07:54.331Z,99360.78
2023-01-29T23:10:23.886Z,99366.45
2023-01-29T23:12:52.773Z,99361.97
2023-01-29T23:15:21.472Z,99361.98
2023-01-29T23:17:51.534Z,99358.89
2023-01-29T23:20:23.587Z,99359.13
2023-01-29T23:22:52.202Z,99355.00
2023-01-29T23:25:21.156Z,99355.20
2023-01-29T23:27:50.279Z,99349.21
2023-01-29T23:30:19.478Z,99353.52
2023-01-29T23:32:49.458Z,99353.90
2023-01-29T23:35:18.424Z,99360.80
2023-01-29T23:37:47.180Z,99363.19
2023-01-29T23:40:16.597Z,99361.77
2023-01-29T23:42:45.918Z,99353.64
2023-01-29T23:45:14.652Z,99354.48
2023-01-29T23:47:44.290Z,99354.00
2023-01-29T23:50:13.430Z,99352.41
2023-01-29T23:52:42.361Z,99350.80
2023-01-29T23:55:11.131Z,99354.48
2023-01-29T23:57:39.868Z,99360.28
